Time;durP1;ratioP1;P1;durP2;ratioP2;P2;SDS_P1;SDS_P2;PMS_P1;PMS_P2;Temp;Humidity;BMP_temperature;BMP_pressure;BME280_temperature;BME280_humidity;BME280_pressure;Samples;Min_cycle;Max_cycle;Signal;HPM_P1;HPM_P2
2020/12/27 00:02:00;;;;;;;2.38;1.63;;;6.10;44.80;;;;;;5036325;28;20398;-74
2020/12/27 00:04:26;;;;;;;1.40;1.30;;;6.20;43.50;;;;;;5055409;28;20496;-75
2020/12/27 00:06:51;;;;;;;2.15;2.03;;;6.20;43.10;;;;;;5052617;28;20425;-74
2020/12/27 00:09:17;;;;;;;3.40;1.60;;;6.10;44.10;;;;;;5053925;28;20433;-75
2020/12/27 00:11:43;;;;;;;1.60;1.50;;;6.00;44.10;;;;;;5056535;28;20396;-75
2020/12/27 00:14:08;;;;;;;1.70;1.60;;;6.00;44.80;;;;;;5056910;28;20389;-74
2020/12/27 00:16:34;;;;;;;1.90;1.70;;;6.00;45.00;;;;;;5054882;28;20543;-74
2020/12/27 00:18:59;;;;;;;1.77;1.67;;;6.00;44.70;;;;;;5054852;28;20748;-75
2020/12/27 00:21:25;;;;;;;2.22;1.70;;;6.00;44.60;;;;;;5053749;28;20907;-73
2020/12/27 00:23:51;;;;;;;3.40;1.50;;;5.90;45.60;;;;;;5054562;28;20403;-75
2020/12/27 00:26:17;;;;;;;1.85;1.73;;;5.80;45.90;;;;;;5054755;28;20374;-75
2020/12/27 00:28:43;;;;;;;1.70;1.60;;;5.90;46.50;;;;;;5055194;28;20822;-75
2020/12/27 00:31:09;;;;;;;1.70;1.40;;;5.90;45.60;;;;;;5055366;28;20378;-74
2020/12/27 00:33:34;;;;;;;1.80;1.70;;;5.90;45.20;;;;;;5056052;28;20816;-75
2020/12/27 00:36:01;;;;;;;1.45;1.35;;;5.80;45.10;;;;;;5056253;28;20442;-75
2020/12/27 00:38:26;;;;;;;1.63;1.52;;;5.80;45.60;;;;;;5054938;28;20390;-75
2020/12/27 00:40:52;;;;;;;1.55;1.45;;;5.70;46.60;;;;;;5054660;28;20384;-73
2020/12/27 00:43:19;;;;;;;1.60;1.50;;;5.80;46.50;;;;;;5054102;28;20405;-74
2020/12/27 00:45:44;;;;;;;2.20;1.75;;;5.70;46.80;;;;;;5054063;28;20394;-75
2020/12/27 00:48:10;;;;;;;1.40;1.30;;;5.70;46.80;;;;;;5054586;28;20402;-74
2020/12/27 00:50:35;;;;;;;2.73;1.40;;;5.70;47.40;;;;;;5054090;28;20411;-75
2020/12/27 00:53:01;;;;;;;2.08;1.50;;;5.70;46.40;;;;;;5053862;28;20913;-75
2020/12/27 00:55:26;;;;;;;1.90;1.40;;;5.80;47.00;;;;;;5034686;28;20425;-74
2020/12/27 00:57:52;;;;;;;2.25;1.40;;;5.70;46.80;;;;;;5053005;28;20890;-74
2020/12/27 01:00:18;;;;;;;1.50;1.40;;;5.80;46.80;;;;;;5053927;28;20418;-73
2020/12/27 01:02:43;;;;;;;2.00;1.50;;;5.80;46.40;;;;;;5054111;28;20397;-74
2020/12/27 01:05:09;;;;;;;2.40;1.60;;;5.80;46.50;;;;;;5053840;28;20469;-74
2020/12/27 01:07:34;;;;;;;1.60;1.50;;;5.90;46.10;;;;;;5035679;28;20390;-75
2020/12/27 01:10:00;;;;;;;1.70;1.60;;;5.80;45.60;;;;;;5053041;28;20397;-74
2020/12/27 01:12:25;;;;;;;1.80;1.70;;;5.80;47.40;;;;;;5053923;28;20400;-74
2020/12/27 01:14:51;;;;;;;1.70;1.60;;;5.80;46.40;;;;;;5053574;28;20499;-73
2020/12/27 01:17:16;;;;;;;1.43;1.33;;;5.90;46.00;;;;;;5053031;28;20459;-73
2020/12/27 01:19:42;;;;;;;1.70;1.60;;;5.80;45.10;;;;;;5054048;28;20444;-74
2020/12/27 01:22:07;;;;;;;5.03;1.57;;;5.80;45.50;;;;;;5053246;28;20424;-74
2020/12/27 01:24:33;;;;;;;2.33;1.30;;;5.90;46.00;;;;;;5052869;28;20440;-74
2020/12/27 01:26:58;;;;;;;1.90;1.30;;;5.80;45.70;;;;;;5053527;28;20393;-74
2020/12/27 01:29:24;;;;;;;1.70;1.38;;;5.80;45.60;;;;;;5053509;28;20385;-74
2020/12/27 01:31:49;;;;;;;1.30;1.20;;;5.80;45.50;;;;;;5053067;28;20398;-74
2020/12/27 01:34:15;;;;;;;1.63;1.52;;;5.80;44.70;;;;;;5051227;28;20747;-74
2020/12/27 01:36:41;;;;;;;2.20;1.50;;;5.80;45.70;;;;;;5049634;28;20527;-74
2020/12/27 01:39:08;;;;;;;1.40;1.30;;;5.70;47.10;;;;;;5050429;28;20459;-73
2020/12/27 01:41:35;;;;;;;2.50;1.80;;;5.60;46.40;;;;;;5050286;28;20492;-74
2020/12/27 01:44:04;;;;;;;4.03;2.28;;;5.70;47.80;;;;;;5050214;28;20400;-73
2020/12/27 01:46:30;;;;;;;1.63;1.52;;;5.60;47.70;;;;;;5050014;28;20400;-73
2020/12/27 01:48:56;;;;;;;1.40;1.30;;;5.70;46.00;;;;;;5052459;28;20873;-74
2020/12/27 01:51:22;;;;;;;1.65;1.55;;;5.70;45.90;;;;;;5054041;28;20382;-74
2020/12/27 01:53:48;;;;;;;1.30;1.20;;;5.70;46.40;;;;;;5053279;28;20399;-73
2020/12/27 01:56:17;;;;;;;1.52;1.42;;;5.60;46.10;;;;;;5053770;28;20503;-73
2020/12/27 01:58:46;;;;;;;1.80;1.70;;;5.70;46.40;;;;;;5052985;28;20385;-73
2020/12/27 02:01:12;;;;;;;1.50;1.40;;;5.70;47.00;;;;;;5053648;28;20378;-74
2020/12/27 02:03:39;;;;;;;1.45;1.35;;;5.70;46.50;;;;;;5053644;28;20503;-73
2020/12/27 02:06:05;;;;;;;2.05;1.92;;;5.70;46.30;;;;;;5049591;28;20403;-75
2020/12/27 02:08:31;;;;;;;2.80;2.40;;;5.70;46.80;;;;;;5033463;28;20888;-74
2020/12/27 02:10:57;;;;;;;1.90;1.67;;;5.60;48.70;;;;;;5033775;28;20391;-74
2020/12/27 02:13:23;;;;;;;1.65;1.55;;;5.60;47.60;;;;;;5045568;28;20428;-74
2020/12/27 02:15:49;;;;;;;1.45;1.35;;;5.70;47.10;;;;;;5053306;28;20441;-74
2020/12/27 02:18:14;;;;;;;2.00;1.40;;;5.80;46.60;;;;;;5053308;28;20903;-73
2020/12/27 02:20:40;;;;;;;1.70;1.60;;;5.80;46.30;;;;;;5053436;28;20431;-73
2020/12/27 02:23:11;;;;;;;1.50;1.40;;;5.90;45.60;;;;;;5053088;28;20899;-73
2020/12/27 02:25:37;;;;;;;1.70;1.40;;;5.90;46.00;;;;;;5053037;28;20921;-73
2020/12/27 02:28:02;;;;;;;1.50;1.40;;;5.90;45.30;;;;;;5052763;28;20480;-74
2020/12/27 02:30:28;;;;;;;2.33;1.67;;;5.90;45.40;;;;;;5053832;28;20409;-75
2020/12/27 02:32:53;;;;;;;1.47;1.37;;;5.90;45.10;;;;;;5052890;28;20408;-74
2020/12/27 02:35:19;;;;;;;1.70;1.60;;;5.90;44.10;;;;;;5052870;28;20413;-74
2020/12/27 02:37:48;;;;;;;2.25;1.60;;;6.00;44.90;;;;;;5052810;28;20383;-73
2020/12/27 02:40:13;;;;;;;2.17;1.65;;;5.90;44.00;;;;;;5052753;28;20397;-75
2020/12/27 02:42:39;;;;;;;1.50;1.40;;;6.00;44.00;;;;;;5052567;28;20417;-74
2020/12/27 02:47:30;;;;;;;1.50;1.40;;;6.00;43.10;;;;;;5062015;28;20966;-75
2020/12/27 02:49:56;;;;;;;1.80;1.60;;;6.00;43.00;;;;;;5061535;28;20424;-73
2020/12/27 02:52:21;;;;;;;2.05;1.50;;;6.00;42.90;;;;;;5043628;28;20398;-74
2020/12/27 02:54:47;;;;;;;1.30;1.20;;;6.00;42.70;;;;;;5061542;28;20427;-75
2020/12/27 02:57:12;;;;;;;2.20;2.00;;;6.00;42.10;;;;;;5061522;28;20455;-74
2020/12/27 02:59:38;;;;;;;1.50;1.40;;;6.00;43.80;;;;;;5061751;28;20388;-75
2020/12/27 03:02:04;;;;;;;1.50;1.40;;;6.00;42.80;;;;;;5042712;28;20412;-75
2020/12/27 03:04:29;;;;;;;1.80;1.70;;;6.10;42.20;;;;;;5060510;28;20393;-75
2020/12/27 03:06:55;;;;;;;3.30;1.58;;;6.10;41.80;;;;;;5049322;28;20405;-74
2020/12/27 03:09:20;;;;;;;1.50;1.40;;;6.00;41.90;;;;;;5059071;28;20428;-76
2020/12/27 03:11:46;;;;;;;3.13;1.20;;;6.00;41.90;;;;;;5059740;28;20783;-74
2020/12/27 03:14:12;;;;;;;1.55;1.10;;;6.00;41.60;;;;;;5058888;28;20728;-74
2020/12/27 03:16:38;;;;;;;1.23;1.13;;;6.10;40.70;;;;;;5056045;28;20861;-75
2020/12/27 03:19:03;;;;;;;2.80;1.20;;;6.10;40.30;;;;;;5056956;28;20463;-74
2020/12/27 03:21:29;;;;;;;1.40;1.30;;;6.00;40.90;;;;;;5055920;28;20724;-73
2020/12/27 03:23:55;;;;;;;1.40;1.30;;;6.00;42.50;;;;;;5054932;28;20899;-74
2020/12/27 03:26:20;;;;;;;1.50;1.40;;;6.10;41.40;;;;;;5054710;28;20493;-74
2020/12/27 03:28:46;;;;;;;1.00;1.00;;;6.00;41.30;;;;;;5054233;28;20381;-74
2020/12/27 03:31:12;;;;;;;2.70;1.00;;;6.00;40.90;;;;;;5054936;28;20502;-73
2020/12/27 03:33:38;;;;;;;1.70;1.30;;;6.10;41.80;;;;;;5053748;28;20424;-74
2020/12/27 03:36:03;;;;;;;1.00;1.00;;;6.10;41.10;;;;;;5036636;28;20483;-74
2020/12/27 03:38:29;;;;;;;1.30;1.20;;;6.00;41.10;;;;;;5057151;28;20432;-74
2020/12/27 03:40:54;;;;;;;1.90;1.20;;;6.00;40.70;;;;;;5057153;28;20961;-74
2020/12/27 03:43:20;;;;;;;1.20;1.10;;;6.00;40.60;;;;;;5057094;28;20417;-74
2020/12/27 03:45:45;;;;;;;1.40;1.30;;;6.10;40.40;;;;;;5057046;28;20431;-74
2020/12/27 03:48:11;;;;;;;1.10;1.00;;;6.10;39.80;;;;;;5038925;28;20385;-73
2020/12/27 03:50:38;;;;;;;1.50;1.10;;;6.10;39.50;;;;;;5057063;28;20416;-73
2020/12/27 03:53:05;;;;;;;2.10;1.30;;;6.00;40.20;;;;;;5057162;28;20541;-73
2020/12/27 03:55:31;;;;;;;1.40;1.13;;;6.10;40.90;;;;;;5055316;28;20428;-74
2020/12/27 03:57:56;;;;;;;1.40;1.20;;;6.10;39.60;;;;;;5055309;28;20389;-73
2020/12/27 04:00:23;;;;;;;1.20;1.10;;;6.10;40.20;;;;;;5036338;28;20404;-74
2020/12/27 04:02:48;;;;;;;1.30;1.10;;;6.10;41.30;;;;;;5053035;28;20787;-74
2020/12/27 04:05:14;;;;;;;3.63;1.40;;;6.10;41.30;;;;;;5052809;28;20436;-73
2020/12/27 04:07:40;;;;;;;1.40;1.30;;;6.10;41.90;;;;;;5052125;28;20390;-74
2020/12/27 04:10:06;;;;;;;1.30;0.90;;;6.20;41.00;;;;;;5054548;28;20378;-74
2020/12/27 04:12:31;;;;;;;1.60;1.00;;;6.10;40.00;;;;;;5035914;28;20977;-73
2020/12/27 04:14:57;;;;;;;1.27;1.00;;;6.10;40.30;;;;;;5035124;28;20391;-74
2020/12/27 04:17:22;;;;;;;1.10;0.87;;;6.10;39.80;;;;;;5050450;28;20487;-73
2020/12/27 04:19:48;;;;;;;1.00;0.90;;;6.10;40.80;;;;;;5053742;28;20467;-74
2020/12/27 04:22:14;;;;;;;1.03;0.93;;;6.10;40.80;;;;;;5054240;28;20405;-73
2020/12/27 04:24:39;;;;;;;0.82;0.82;;;6.10;41.20;;;;;;5036376;28;20401;-74
2020/12/27 04:27:06;;;;;;;1.17;1.08;;;6.10;41.50;;;;;;5054703;28;20397;-75
2020/12/27 04:29:31;;;;;;;1.83;1.10;;;6.10;41.20;;;;;;5054030;28;20404;-73
2020/12/27 04:31:57;;;;;;;1.40;0.90;;;6.10;41.10;;;;;;5054707;28;20381;-74
2020/12/27 04:34:22;;;;;;;1.27;1.10;;;6.10;41.90;;;;;;5054574;28;20400;-72
2020/12/27 04:36:48;;;;;;;1.90;1.00;;;6.20;42.60;;;;;;5053800;28;20474;-74
2020/12/27 04:39:14;;;;;;;1.47;1.30;;;6.20;42.00;;;;;;5054543;28;20386;-73
2020/12/27 04:41:39;;;;;;;1.50;1.00;;;6.20;41.70;;;;;;5053424;28;20405;-72
2020/12/27 04:44:06;;;;;;;0.90;0.90;;;6.20;40.80;;;;;;5052851;28;20879;-75
2020/12/27 04:46:33;;;;;;;0.85;0.70;;;6.10;40.90;;;;;;5054688;28;20387;-72
2020/12/27 04:48:59;;;;;;;1.10;1.00;;;6.10;40.20;;;;;;5055209;28;20743;-72
2020/12/27 04:51:25;;;;;;;0.80;0.70;;;6.10;40.80;;;;;;5037711;28;20412;-72
2020/12/27 04:53:54;;;;;;;0.98;0.88;;;6.10;40.40;;;;;;5055039;28;20450;-72
2020/12/27 04:56:22;;;;;;;2.28;0.85;;;6.10;41.60;;;;;;5054116;28;20431;-71
2020/12/27 04:58:49;;;;;;;0.80;0.70;;;6.10;40.50;;;;;;5053890;28;20389;-71
2020/12/27 05:01:14;;;;;;;1.40;0.82;;;6.10;40.50;;;;;;5053855;28;20401;-72
2020/12/27 05:03:40;;;;;;;0.80;0.80;;;6.00;40.40;;;;;;5053692;28;20377;-71
2020/12/27 05:06:13;;;;;;;1.10;1.00;;;6.00;40.70;;;;;;5048827;28;20845;-72
2020/12/27 05:08:39;;;;;;;4.70;0.90;;;6.00;41.40;;;;;;5033393;28;20403;-70
2020/12/27 05:11:04;;;;;;;1.43;0.70;;;6.00;41.20;;;;;;5044469;28;20409;-72
2020/12/27 05:13:31;;;;;;;1.10;1.00;;;6.00;40.10;;;;;;5053175;28;20393;-72
2020/12/27 05:16:02;;;;;;;0.80;0.80;;;6.00;41.60;;;;;;5053196;28;20875;-72
2020/12/27 05:18:28;;;;;;;0.90;0.80;;;6.00;41.20;;;;;;5047994;28;20408;-72
2020/12/27 05:20:53;;;;;;;1.00;0.70;;;6.00;41.30;;;;;;5034348;28;20470;-71
2020/12/27 05:23:25;;;;;;;1.13;0.83;;;6.10;41.30;;;;;;5028993;28;20401;-72
2020/12/27 05:25:50;;;;;;;0.70;0.60;;;6.10;41.10;;;;;;5053115;28;20385;-72
2020/12/27 05:28:16;;;;;;;0.90;0.80;;;6.10;39.90;;;;;;5054280;28;20461;-72
2020/12/27 05:30:45;;;;;;;1.00;0.80;;;6.10;41.20;;;;;;5054079;28;20870;-72
2020/12/27 05:33:16;;;;;;;1.00;0.70;;;6.10;40.50;;;;;;5053847;28;20439;-72
2020/12/27 05:35:42;;;;;;;0.95;0.77;;;6.20;40.10;;;;;;5055635;28;20389;-72
2020/12/27 05:38:10;;;;;;;1.60;0.75;;;6.10;40.10;;;;;;5055404;28;20481;-71
2020/12/27 05:40:40;;;;;;;0.70;0.60;;;6.10;40.90;;;;;;5056147;28;20385;-72
2020/12/27 05:43:13;;;;;;;0.90;0.70;;;6.10;40.30;;;;;;5056335;28;20420;-73
2020/12/27 05:45:38;;;;;;;1.10;0.70;;;6.10;41.20;;;;;;5056758;28;20801;-71
2020/12/27 05:48:04;;;;;;;0.90;0.80;;;6.10;40.50;;;;;;5057305;28;20389;-71
2020/12/27 05:50:35;;;;;;;1.00;0.90;;;6.10;41.00;;;;;;5040397;28;20458;-72
2020/12/27 05:53:20;;;;;;;0.70;0.60;;;6.10;41.20;;;;;;5039921;28;20451;-73
2020/12/27 05:55:48;;;;;;;0.85;0.73;;;6.20;40.10;;;;;;5056527;28;20473;-71
2020/12/27 05:58:22;;;;;;;1.23;0.70;;;6.20;39.70;;;;;;5057293;28;20538;-72
2020/12/27 06:00:58;;;;;;;0.80;0.70;;;6.20;40.00;;;;;;5049525;28;20393;-72
2020/12/27 06:03:29;;;;;;;1.00;0.90;;;6.20;40.00;;;;;;5058295;28;20409;-72
2020/12/27 06:05:54;;;;;;;0.70;0.70;;;6.10;41.00;;;;;;5057994;28;20439;-72
2020/12/27 06:08:29;;;;;;;0.70;0.60;;;6.20;40.50;;;;;;5057365;28;20901;-72
2020/12/27 06:11:04;;;;;;;1.35;0.70;;;6.10;41.20;;;;;;5057084;28;20810;-72
2020/12/27 06:13:42;;;;;;;1.50;0.80;;;6.20;40.10;;;;;;5056629;28;20886;-72
2020/12/27 06:16:12;;;;;;;0.70;0.63;;;6.20;40.10;;;;;;5056792;28;20428;-72
2020/12/27 06:18:40;;;;;;;2.63;0.80;;;6.30;40.20;;;;;;5056929;28;20385;-72
2020/12/27 06:21:10;;;;;;;2.50;0.60;;;6.20;41.20;;;;;;5056972;28;20385;-72
2020/12/27 06:23:37;;;;;;;0.90;0.80;;;6.20;40.00;;;;;;5056645;28;20499;-71
2020/12/27 06:26:04;;;;;;;1.30;0.70;;;6.30;40.70;;;;;;5056858;28;20390;-72
2020/12/27 06:28:30;;;;;;;0.90;0.70;;;6.20;40.70;;;;;;5054359;28;20394;-72
2020/12/27 06:30:59;;;;;;;0.82;0.80;;;6.20;40.80;;;;;;5054025;28;20389;-73
2020/12/27 06:33:27;;;;;;;0.70;0.70;;;6.20;40.30;;;;;;5053231;28;20862;-72
2020/12/27 06:35:53;;;;;;;1.40;0.70;;;6.20;41.30;;;;;;5054333;28;20409;-73
2020/12/27 06:38:23;;;;;;;0.90;0.70;;;6.30;40.90;;;;;;5054574;28;20432;-73
2020/12/27 06:41:16;;;;;;;0.70;0.70;;;6.30;40.30;;;;;;5054895;28;20431;-73
2020/12/27 06:43:44;;;;;;;4.40;0.90;;;6.30;40.10;;;;;;5013404;28;20512;-72
2020/12/27 06:46:27;;;;;;;1.27;0.73;;;6.30;41.20;;;;;;5033273;28;20395;-72
2020/12/27 06:49:09;;;;;;;0.70;0.60;;;6.20;40.90;;;;;;5034597;28;20766;-71
2020/12/27 06:51:39;;;;;;;0.98;0.88;;;6.30;39.40;;;;;;5052471;28;20402;-73
2020/12/27 06:54:05;;;;;;;0.80;0.70;;;6.30;40.40;;;;;;5052639;28;20428;-73
2020/12/27 06:57:00;;;;;;;0.80;0.70;;;6.30;41.20;;;;;;5052601;28;20397;-73
2020/12/27 06:59:26;;;;;;;1.07;0.70;;;6.30;40.10;;;;;;5031183;28;20406;-72
2020/12/27 07:02:07;;;;;;;0.70;0.60;;;6.30;41.00;;;;;;5051461;28;20409;-73
2020/12/27 07:04:36;;;;;;;1.20;0.60;;;6.30;41.00;;;;;;5052257;28;20385;-73
2020/12/27 07:07:03;;;;;;;0.70;0.60;;;6.30;40.10;;;;;;5052142;28;20397;-73
2020/12/27 07:09:31;;;;;;;1.70;0.80;;;6.30;40.30;;;;;;5051972;28;20447;-72
2020/12/27 07:12:11;;;;;;;0.80;0.80;;;6.30;41.20;;;;;;5044681;28;20408;-73
2020/12/27 07:14:39;;;;;;;1.50;0.70;;;6.30;40.60;;;;;;5053635;28;20403;-74
2020/12/27 07:17:06;;;;;;;2.60;0.70;;;6.30;40.90;;;;;;5054842;28;20389;-73
2020/12/27 07:19:34;;;;;;;0.70;0.60;;;6.30;41.00;;;;;;5056332;28;20389;-73
2020/12/27 07:22:09;;;;;;;0.70;0.70;;;6.30;41.40;;;;;;5056833;28;20491;-74
2020/12/27 07:24:37;;;;;;;0.70;0.60;;;6.30;41.80;;;;;;5055434;28;20389;-74
2020/12/27 07:27:09;;;;;;;0.90;0.70;;;6.30;41.50;;;;;;5038349;28;20427;-72
2020/12/27 07:29:35;;;;;;;0.60;0.60;;;6.30;41.20;;;;;;5056732;28;20830;-73
2020/12/27 07:32:01;;;;;;;1.20;0.80;;;6.40;41.00;;;;;;5055307;28;20901;-73
2020/12/27 07:34:29;;;;;;;2.20;0.60;;;6.30;41.30;;;;;;5056419;28;20386;-72
2020/12/27 07:37:03;;;;;;;0.70;0.65;;;6.30;41.40;;;;;;5056451;28;20789;-73
2020/12/27 07:39:54;;;;;;;0.80;0.77;;;6.40;41.20;;;;;;5054922;28;20404;-75
2020/12/27 07:42:19;;;;;;;0.90;0.60;;;6.40;41.10;;;;;;5055562;28;20484;-75
2020/12/27 07:44:46;;;;;;;0.70;0.53;;;6.40;40.90;;;;;;5055724;28;20826;-73
2020/12/27 07:47:11;;;;;;;0.80;0.60;;;6.40;41.20;;;;;;5054316;28;20424;-74
2020/12/27 07:49:37;;;;;;;0.80;0.70;;;6.40;41.30;;;;;;5055387;28;20381;-73
2020/12/27 07:52:02;;;;;;;1.10;0.90;;;6.40;42.10;;;;;;5052944;28;20393;-74
2020/12/27 07:54:28;;;;;;;0.90;0.83;;;6.40;41.20;;;;;;5050574;28;20397;-72
2020/12/27 07:56:53;;;;;;;0.60;0.60;;;6.40;41.60;;;;;;5051080;28;20709;-73
2020/12/27 07:59:19;;;;;;;0.80;0.60;;;6.40;41.20;;;;;;5051456;28;20390;-75
2020/12/27 08:01:44;;;;;;;0.73;0.65;;;6.40;41.50;;;;;;5050550;28;20424;-73
2020/12/27 08:04:10;;;;;;;1.40;0.70;;;6.40;43.00;;;;;;5051457;28;20385;-72
2020/12/27 08:06:40;;;;;;;0.87;0.70;;;6.40;42.30;;;;;;5050678;28;20463;-73
2020/12/27 08:09:10;;;;;;;0.98;0.80;;;6.40;41.40;;;;;;5051164;28;20389;-74
2020/12/27 08:11:38;;;;;;;0.70;0.70;;;6.40;41.90;;;;;;5050848;28;20496;-74
2020/12/27 08:14:05;;;;;;;1.70;0.60;;;6.50;41.30;;;;;;5051079;28;20381;-73
2020/12/27 08:16:31;;;;;;;1.20;0.70;;;6.50;41.90;;;;;;5050482;28;20401;-74
2020/12/27 08:19:14;;;;;;;0.60;0.60;;;6.50;41.80;;;;;;5050437;28;20755;-73
2020/12/27 08:21:42;;;;;;;0.80;0.70;;;6.50;41.60;;;;;;5032547;28;20415;-73
2020/12/27 08:24:13;;;;;;;1.08;0.70;;;6.50;41.60;;;;;;5050790;28;20848;-73
2020/12/27 08:26:43;;;;;;;1.20;0.80;;;6.60;41.20;;;;;;5033019;28;20792;-73
2020/12/27 08:29:10;;;;;;;0.80;0.60;;;6.60;40.70;;;;;;5050659;28;20992;-72
2020/12/27 08:31:36;;;;;;;1.40;0.80;;;6.60;40.50;;;;;;5050471;28;20573;-74
2020/12/27 08:34:12;;;;;;;0.82;0.70;;;6.60;41.00;;;;;;5038693;28;20457;-73
2020/12/27 08:36:40;;;;;;;1.30;0.70;;;6.60;41.30;;;;;;5035438;28;20474;-73
2020/12/27 08:39:20;;;;;;;0.80;0.60;;;6.70;41.50;;;;;;5050457;28;20393;-73
2020/12/27 08:41:57;;;;;;;0.70;0.68;;;6.70;40.10;;;;;;5032334;28;20500;-72
2020/12/27 08:44:42;;;;;;;0.90;0.73;;;6.70;40.70;;;;;;5032848;28;20391;-73
2020/12/27 08:47:15;;;;;;;0.93;0.90;;;6.70;39.90;;;;;;5047192;28;20883;-74
2020/12/27 08:49:57;;;;;;;3.30;0.80;;;6.70;40.10;;;;;;5050647;28;20412;-73
2020/12/27 08:52:24;;;;;;;0.70;0.70;;;6.70;45.10;;;;;;5047978;28;20399;-77
2020/12/27 08:54:58;;;;;;;0.80;0.68;;;6.70;40.00;;;;;;5047477;28;20415;-76
2020/12/27 08:57:24;;;;;;;0.80;0.60;;;6.70;39.90;;;;;;5050957;28;20863;-78
2020/12/27 09:00:07;;;;;;;0.82;0.73;;;6.80;39.40;;;;;;5050974;28;20381;-74
2020/12/27 09:02:33;;;;;;;1.10;0.70;;;6.80;39.90;;;;;;5049908;28;20955;-74
2020/12/27 09:05:03;;;;;;;2.70;0.70;;;6.80;39.40;;;;;;5048889;28;20438;-75
2020/12/27 09:07:36;;;;;;;1.00;0.80;;;6.80;39.20;;;;;;5045540;28;20408;-77
2020/12/27 09:10:07;;;;;;;0.95;0.90;;;6.90;39.40;;;;;;5045252;28;20925;-72
2020/12/27 09:12:32;;;;;;;0.90;0.70;;;6.90;39.20;;;;;;5063122;28;20480;-73
2020/12/27 09:14:58;;;;;;;0.70;0.60;;;6.90;38.30;;;;;;5050834;28;20419;-73
2020/12/27 09:17:27;;;;;;;0.93;0.60;;;6.90;38.20;;;;;;5059376;28;20409;-74
2020/12/27 09:19:55;;;;;;;1.40;0.70;;;7.00;37.80;;;;;;5061612;28;20882;-74
2020/12/27 09:22:21;;;;;;;3.20;0.90;;;7.00;37.90;;;;;;5057296;28;20417;-73
2020/12/27 09:25:06;;;;;;;1.23;0.93;;;7.00;38.70;;;;;;5057589;28;20476;-73
2020/12/27 09:27:32;;;;;;;0.70;0.60;;;7.00;39.60;;;;;;5047299;28;20401;-73
2020/12/27 09:30:01;;;;;;;2.10;0.90;;;6.90;38.80;;;;;;5051440;28;20898;-73
2020/12/27 09:32:33;;;;;;;1.80;0.85;;;6.90;39.40;;;;;;5028430;28;20822;-73
2020/12/27 09:34:59;;;;;;;0.70;0.70;;;6.90;39.40;;;;;;5045434;28;20458;-74
2020/12/27 09:37:31;;;;;;;1.70;0.70;;;6.90;39.50;;;;;;5032950;28;20389;-73
2020/12/27 09:39:57;;;;;;;1.25;0.80;;;6.80;38.80;;;;;;5038437;28;20410;-73
2020/12/27 09:42:28;;;;;;;1.02;0.82;;;6.80;39.50;;;;;;5049954;28;20833;-74
2020/12/27 09:44:56;;;;;;;1.20;0.80;;;6.80;38.90;;;;;;5031295;28;20440;-73
2020/12/27 09:47:22;;;;;;;1.90;0.80;;;6.80;39.00;;;;;;5038207;28;20388;-72
2020/12/27 09:50:05;;;;;;;1.13;0.70;;;6.80;38.40;;;;;;5044748;28;20395;-72
2020/12/27 09:52:31;;;;;;;1.00;0.80;;;6.80;39.50;;;;;;5047301;28;20471;-73
2020/12/27 09:54:56;;;;;;;0.90;0.90;;;6.80;39.50;;;;;;5050793;28;20898;-73
2020/12/27 09:57:24;;;;;;;1.10;0.80;;;6.80;39.60;;;;;;5042486;28;20445;-73
2020/12/27 09:59:51;;;;;;;0.80;0.70;;;6.80;38.60;;;;;;5048130;28;20965;-73
2020/12/27 10:02:18;;;;;;;0.90;0.70;;;6.80;39.10;;;;;;5043371;28;20420;-75
2020/12/27 10:04:44;;;;;;;1.10;1.00;;;6.80;38.80;;;;;;5046506;28;20945;-74
2020/12/27 10:07:10;;;;;;;1.50;0.70;;;6.80;39.90;;;;;;5050623;28;20436;-73
2020/12/27 10:09:35;;;;;;;1.80;0.80;;;6.80;38.90;;;;;;5056735;28;20415;-74
2020/12/27 10:12:01;;;;;;;2.70;0.87;;;6.80;39.20;;;;;;5054255;28;20405;-76
2020/12/27 10:14:27;;;;;;;0.77;0.70;;;6.80;38.80;;;;;;5050784;28;20397;-78
2020/12/27 10:16:56;;;;;;;4.90;0.90;;;6.80;39.00;;;;;;5054689;28;20489;-76
2020/12/27 10:19:22;;;;;;;0.93;0.70;;;6.80;39.60;;;;;;5022409;28;20435;-74
2020/12/27 10:21:48;;;;;;;2.10;1.00;;;6.80;38.40;;;;;;5030174;28;20507;-74
2020/12/27 10:24:15;;;;;;;0.80;0.60;;;6.80;39.60;;;;;;5052165;28;20421;-75
2020/12/27 10:26:41;;;;;;;0.70;0.70;;;6.90;38.50;;;;;;5049012;28;20420;-76
2020/12/27 10:29:06;;;;;;;0.77;0.70;;;6.90;38.20;;;;;;5047357;28;20394;-73
2020/12/27 10:31:32;;;;;;;0.87;0.83;;;6.90;40.70;;;;;;5042468;28;20457;-73
2020/12/27 10:33:59;;;;;;;0.90;0.70;;;6.90;40.00;;;;;;5048387;28;20397;-76
2020/12/27 10:36:25;;;;;;;0.70;0.70;;;6.90;38.30;;;;;;5052416;28;20934;-76
2020/12/27 10:38:51;;;;;;;0.88;0.88;;;6.90;38.70;;;;;;5047337;28;20492;-76
2020/12/27 10:41:16;;;;;;;1.80;0.80;;;6.90;40.20;;;;;;5034991;28;20401;-77
2020/12/27 10:43:49;;;;;;;0.80;0.80;;;6.90;39.00;;;;;;5051597;28;20421;-75
2020/12/27 10:46:15;;;;;;;1.60;1.00;;;7.00;38.30;;;;;;5049987;28;20401;-75
2020/12/27 10:48:40;;;;;;;1.90;1.08;;;7.00;40.00;;;;;;5051064;28;20405;-76
2020/12/27 10:51:06;;;;;;;0.80;0.70;;;7.00;38.40;;;;;;5034319;28;20755;-74
2020/12/27 10:53:31;;;;;;;1.50;0.90;;;7.00;38.80;;;;;;5052959;28;20390;-74
2020/12/27 10:55:57;;;;;;;0.80;0.70;;;7.00;39.00;;;;;;5057695;28;20425;-75
2020/12/27 10:58:22;;;;;;;1.10;0.67;;;7.00;38.30;;;;;;5055220;28;20403;-73
2020/12/27 11:00:48;;;;;;;1.27;1.00;;;7.00;37.60;;;;;;5047589;28;20801;-73
2020/12/27 11:03:15;;;;;;;1.80;0.73;;;7.00;38.40;;;;;;5053865;28;20405;-75
2020/12/27 11:05:40;;;;;;;0.80;0.80;;;7.00;37.60;;;;;;5053815;28;20390;-75
2020/12/27 11:08:07;;;;;;;0.90;0.90;;;7.10;37.10;;;;;;5034556;28;20798;-75
2020/12/27 11:10:33;;;;;;;0.80;0.70;;;7.10;36.80;;;;;;5053055;28;20776;-75
2020/12/27 11:12:58;;;;;;;4.30;1.20;;;7.20;36.40;;;;;;5052815;28;20400;-75
2020/12/27 11:15:24;;;;;;;4.70;1.10;;;7.20;36.50;;;;;;5052436;28;20551;-76
2020/12/27 11:17:49;;;;;;;1.37;0.90;;;7.20;36.80;;;;;;5052612;28;20389;-75
2020/12/27 11:20:15;;;;;;;0.80;0.80;;;7.10;36.80;;;;;;5052072;28;20428;-74
2020/12/27 11:22:41;;;;;;;1.50;0.83;;;7.20;37.10;;;;;;5052737;28;20413;-74
2020/12/27 11:25:08;;;;;;;0.90;0.80;;;7.10;36.40;;;;;;5052403;28;20389;-74
2020/12/27 11:27:33;;;;;;;0.70;0.70;;;7.10;36.70;;;;;;5051724;28;20381;-75
2020/12/27 11:29:59;;;;;;;3.20;0.80;;;7.10;36.90;;;;;;5033694;28;20405;-75
2020/12/27 11:32:25;;;;;;;1.25;0.95;;;7.10;36.90;;;;;;5051624;28;20397;-74
2020/12/27 11:34:50;;;;;;;1.20;0.80;;;7.10;37.00;;;;;;5051594;28;20770;-75
2020/12/27 11:37:16;;;;;;;0.93;0.80;;;7.20;36.90;;;;;;5051807;28;20470;-75
2020/12/27 11:39:42;;;;;;;2.78;1.00;;;7.10;37.30;;;;;;5052399;28;20385;-75
2020/12/27 11:42:08;;;;;;;2.50;0.90;;;7.10;37.30;;;;;;5052808;28;20447;-74
2020/12/27 11:44:33;;;;;;;1.10;1.00;;;7.20;37.30;;;;;;5052133;28;20402;-75
2020/12/27 11:47:06;;;;;;;1.90;0.80;;;7.20;37.90;;;;;;5032548;28;20397;-74
2020/12/27 11:49:32;;;;;;;0.95;0.95;;;7.20;37.50;;;;;;5050861;28;20439;-74
2020/12/27 11:51:58;;;;;;;1.05;0.88;;;7.20;37.80;;;;;;5047802;28;20805;-73
2020/12/27 11:54:23;;;;;;;0.90;0.90;;;7.20;38.40;;;;;;5051057;28;20833;-74
2020/12/27 11:56:50;;;;;;;0.95;0.95;;;7.20;38.60;;;;;;5052614;28;20461;-74
2020/12/27 11:59:15;;;;;;;1.45;0.93;;;7.20;40.30;;;;;;5052746;28;20404;-76
2020/12/27 12:01:45;;;;;;;2.60;0.70;;;7.20;40.00;;;;;;5052376;28;20397;-75
2020/12/27 12:04:10;;;;;;;0.82;0.82;;;7.20;40.30;;;;;;5051562;28;20385;-75
2020/12/27 12:06:36;;;;;;;1.40;0.80;;;7.20;40.70;;;;;;5052110;28;20430;-73
2020/12/27 12:09:02;;;;;;;1.00;0.90;;;7.20;40.10;;;;;;5051656;28;20448;-73
2020/12/27 12:11:34;;;;;;;1.77;0.97;;;7.20;41.90;;;;;;5051754;28;20407;-74
2020/12/27 12:13:59;;;;;;;1.17;0.90;;;7.10;41.50;;;;;;5052818;28;20432;-74
2020/12/27 12:16:25;;;;;;;0.90;0.70;;;7.00;43.00;;;;;;5055211;28;20447;-74
2020/12/27 12:18:51;;;;;;;1.50;0.80;;;6.90;44.80;;;;;;5053424;28;20428;-73
2020/12/27 12:21:17;;;;;;;2.10;0.77;;;6.90;47.20;;;;;;5035339;28;20402;-75
2020/12/27 12:23:42;;;;;;;0.70;0.70;;;6.80;47.40;;;;;;5046235;28;20441;-74
2020/12/27 12:26:09;;;;;;;1.07;0.80;;;6.80;47.10;;;;;;5053311;28;20397;-73
2020/12/27 12:28:35;;;;;;;0.80;0.80;;;6.70;48.60;;;;;;5034967;28;20386;-74
2020/12/27 12:31:00;;;;;;;1.50;0.80;;;6.60;50.60;;;;;;5050346;28;20475;-74
2020/12/27 12:33:26;;;;;;;1.20;0.80;;;6.50;51.80;;;;;;5049751;28;20867;-73
2020/12/27 12:35:51;;;;;;;1.85;0.80;;;6.50;50.90;;;;;;5050080;28;20875;-73
2020/12/27 12:38:17;;;;;;;1.10;0.80;;;6.50;51.30;;;;;;5049923;28;20423;-74
2020/12/27 12:40:43;;;;;;;0.70;0.70;;;6.50;51.40;;;;;;5051662;28;20466;-75
2020/12/27 12:43:08;;;;;;;1.90;0.80;;;6.50;51.70;;;;;;5052774;28;20413;-75
2020/12/27 12:45:34;;;;;;;0.90;0.70;;;6.40;53.30;;;;;;5052907;28;20404;-76
2020/12/27 12:48:00;;;;;;;1.10;1.00;;;6.40;53.10;;;;;;5053021;28;20422;-74
2020/12/27 12:50:26;;;;;;;3.35;0.93;;;6.40;54.90;;;;;;5050469;28;20400;-75
2020/12/27 12:52:51;;;;;;;4.03;0.70;;;6.30;56.10;;;;;;5053873;28;20403;-75
2020/12/27 12:55:17;;;;;;;2.63;0.70;;;6.30;54.50;;;;;;5053870;28;20417;-74
2020/12/27 12:57:43;;;;;;;1.10;0.80;;;6.30;56.80;;;;;;5050727;28;20397;-74
2020/12/27 13:00:08;;;;;;;1.05;0.80;;;6.20;56.20;;;;;;5050720;28;20451;-76
2020/12/27 13:02:36;;;;;;;1.80;1.00;;;6.20;56.50;;;;;;5052444;28;20432;-74